Black Pearl — FAC3436 — position and weather

sailwx.info

Track history (hours):
 
Tides and Currents Weather Stations Pressure Air Temp Water Temp Dewpoint Dewpoint Depression Visibility Wind Speed Wind Dir Waves Ship Positions

Black Pearl

Last reported at 2018-May-10 14:08 UTC. Time now 2018-Jun-24 15:06 UTC.
Position N 47°30' W 002°31'.
Warning: this ship's position is 45 days out of date.

Length 9 m.

Type: Sailing vessel. MMSI: 227275650.

Date/timePositionNaut miles runAvg speedWind from/ knotsBaromVisibWave heightAir tempDewpointWater temp
2018-May-10 14:08N 47°30' W 002°31'1 6.1
2018-May-10 13:55N 47°30' W 002°33'9 5.7
2018-May-10 12:20N 47°27' W 002°45'2 5.5
2018-May-10 12:01N 47°27' W 002°48'3 5.4
2018-May-10 11:29N 47°26' W 002°52'3 5.5
2018-May-10 10:53N 47°25' W 002°57'2 5.3
2018-May-10 10:30N 47°25' W 002°60'3 5.7
2018-May-10 10:00N 47°24' W 003°04'3 6.0
2018-May-10 09:29N 47°23' W 003°08'4 0.1
2018-May-08 11:42N 47°22' W 003°13'1 3.5
2018-May-08 11:27N 47°23' W 003°12'3 5.9
2018-May-08 10:57N 47°25' W 003°09'2 2.0
2018-May-08 10:01N 47°24' W 003°07'4 5.6
2018-May-08 09:17N 47°26' W 003°03'1 4.9
2018-May-08 09:00N 47°28' W 003°01'4 6.2
2018-May-08 08:24N 47°31' W 003°01'2 5.7
2018-May-08 07:58N 47°34' W 003°01'2 0.1
2018-May-07 17:03N 47°35' W 003°01'0 4.0
2018-May-07 17:00N 47°35' W 003°01'3 5.0
2018-May-07 16:30N 47°33' W 002°60'3 4.6
2018-May-07 15:54N 47°31' W 002°57'7 1.1
2018-May-07 09:27N 47°24' W 003°00'  
Track history (hours):
 
Tides and Currents Weather Stations Pressure Air Temp Water Temp Dewpoint Dewpoint Depression Visibility Wind Speed Wind Dir Waves Ship Positions

Black Pearl

Last reported at 2018-May-10 14:08 UTC. Time now 2018-Jun-24 15:06 UTC.
Position N 47°30' W 002°31'.
Warning: this ship's position is 45 days out of date.

Length 9 m.

Type: Sailing vessel. MMSI: 227275650.

Date/timePositionNaut miles runAvg speedWind from/ knotsBaromVisibWave heightAir tempDewpointWater temp
2018-May-10 14:08N 47°30' W 002°31'1 6.1
2018-May-10 13:55N 47°30' W 002°33'9 5.7
2018-May-10 12:20N 47°27' W 002°45'2 5.5
2018-May-10 12:01N 47°27' W 002°48'3 5.4
2018-May-10 11:29N 47°26' W 002°52'3 5.5
2018-May-10 10:53N 47°25' W 002°57'2 5.3
2018-May-10 10:30N 47°25' W 002°60'3 5.7
2018-May-10 10:00N 47°24' W 003°04'3 6.0
2018-May-10 09:29N 47°23' W 003°08'4 0.1
2018-May-08 11:42N 47°22' W 003°13'1 3.5
2018-May-08 11:27N 47°23' W 003°12'3 5.9
2018-May-08 10:57N 47°25' W 003°09'2 2.0
2018-May-08 10:01N 47°24' W 003°07'4 5.6
2018-May-08 09:17N 47°26' W 003°03'1 4.9
2018-May-08 09:00N 47°28' W 003°01'4 6.2
2018-May-08 08:24N 47°31' W 003°01'2 5.7
2018-May-08 07:58N 47°34' W 003°01'2 0.1
2018-May-07 17:03N 47°35' W 003°01'0 4.0
2018-May-07 17:00N 47°35' W 003°01'3 5.0
2018-May-07 16:30N 47°33' W 002°60'3 4.6
2018-May-07 15:54N 47°31' W 002°57'7 1.1
2018-May-07 09:27N 47°24' W 003°00'  

Dump ship's entire track history